Latest Weather Observations for Bundaberg

IDQ60801

Issued at 10:05 am EST Tuesday 21 October 2014 (issued every 30 minutes, with the page automatically refreshed every 10 minutes)

About weather observations | Map of weather stations | Latest weather observations for QLD | Other Formats
Station Details ID: 039128 Name: BUNDABERG AERO Lat: -24.91 Lon: 152.32 Height: 30.82 m
Data from the previous 72 hours. | See also: Recent months at Bundaberg
Date/Time
EST
Temp
°C
App
Temp
°C
Dew
Point
Rel
Hum
%
Delta-T
°C
Wind Press
QNH
hPa
Press
MSL
hPa
Rain
since 9 am
mm
Dir
 
Spd
km/h
Gust
km/h
Spd
kts
Gust
kts
21/10:04am 26.0 21.0 11.0 39 8.4 ESE 28 46 15 25 1025.4 1025.3 0.0
21/10:00am 25.4 19.9 10.4 39 8.3 ESE 30 44 16 24 1025.5 1025.4 0.0
21/09:30am 24.8 19.6 11.7 44 7.4 ESE 30 46 16 25 1025.8 1025.7 0.0
21/09:00am 23.7 19.0 10.7 44 7.2 ESE 26 35 14 19 1026.0 1025.9 0.0
21/08:30am 23.4 17.9 10.5 44 7.1 ESE 30 39 16 21 1025.7 1025.6 0.0
21/08:00am 23.5 19.5 11.9 48 6.5 SE 24 33 13 18 1025.7 1025.6 0.0
21/07:30am 22.1 19.5 13.2 57 5.1 SE 19 26 10 14 1025.6 1025.5 0.0
21/07:00am 20.2 17.9 12.9 63 4.1 SSE 17 20 9 11 1025.3 1025.2 0.0
21/06:30am 18.4 17.3 13.0 71 3.0 S 11 15 6 8 1025.0 1024.9 0.0
21/06:00am 16.2 15.3 12.7 80 1.9 SSE 9 15 5 8 1024.7 1024.6 0.0
21/05:30am 15.5 13.8 12.4 82 1.7 SSE 13 17 7 9 1024.4 1024.3 0.0
21/05:00am 15.8 14.1 12.4 80 1.9 SSE 13 17 7 9 1024.0 1023.9 0.0
21/04:30am 16.5 14.5 12.7 78 2.1 SSE 15 20 8 11 1023.7 1023.6 0.0
21/04:00am 17.0 14.8 13.3 79 2.1 SSE 17 22 9 12 1023.4 1023.3 0.0
21/03:30am 16.0 14.4 12.9 82 1.7 SSE 13 19 7 10 1023.6 1023.5 0.0
21/03:00am 15.9 14.4 13.0 83 1.6 SSE 13 20 7 11 1023.6 1023.5 0.0
21/02:30am 16.0 14.4 12.9 82 1.7 SSE 13 17 7 9 1023.7 1023.6 0.0
21/02:00am 16.0 14.4 12.9 82 1.7 SSE 13 19 7 10 1023.8 1023.7 0.0
21/01:30am 15.9 14.7 12.8 82 1.7 SSE 11 15 6 8 1024.0 1023.9 0.0
21/01:00am 16.5 15.4 13.2 81 1.8 SSE 11 15 6 8 1024.3 1024.2 0.0
21/12:30am 15.7 14.4 12.6 82 1.7 SSE 11 17 6 9 1024.5 1024.4 0.0
21/12:00am 16.1 14.8 12.5 79 2.0 SSE 11 15 6 8 1024.8 1024.7 0.0
 
Date/Time
EST
Temp
°C
App
Temp
°C
Dew
Point
Rel
Hum
%
Delta-T
°C
Wind Press
QNH
hPa
Press
MSL
hPa
Rain
since 9 am
mm
Dir
 
Spd
km/h
Gust
km/h
Spd
kts
Gust
kts
20/11:30pm 16.8 15.2 12.7 77 2.3 SSE 13 17 7 9 1025.1 1025.0 0.0
20/11:00pm 16.7 15.5 12.7 77 2.2 S 11 15 6 8 1025.3 1025.2 0.0
20/10:30pm 16.9 15.2 12.6 76 2.4 S 13 17 7 9 1025.4 1025.3 0.0
20/10:00pm 17.4 16.3 13.1 76 2.4 S 11 15 6 8 1025.3 1025.2 0.0
20/09:30pm 17.2 16.7 12.7 75 2.5 S 7 9 4 5 1025.1 1025.0 0.0
20/09:00pm 18.7 18.4 13.3 71 3.0 SE 7 9 4 5 1024.7 1024.6 0.0
20/08:30pm 19.3 17.5 13.2 68 3.5 ESE 15 17 8 9 1024.3 1024.2 0.0
20/08:00pm 19.5 17.5 12.7 65 3.8 E 15 19 8 10 1023.9 1023.8 0.0
20/07:30pm 20.2 18.3 12.9 63 4.1 E 15 19 8 10 1023.5 1023.4 0.0
20/07:00pm 20.4 18.4 12.6 61 4.4 E 15 20 8 11 1023.2 1023.1 0.0
20/06:30pm 21.0 19.4 12.9 60 4.6 E 13 19 7 10 1022.7 1022.6 0.0
20/06:00pm 21.6 19.7 13.0 58 4.9 ENE 15 19 8 10 1022.2 1022.1 0.0
20/05:30pm 22.4 19.4 12.6 54 5.6 ENE 20 26 11 14 1021.8 1021.7 0.0
20/05:00pm 23.2 20.1 12.2 50 6.2 ENE 20 26 11 14 1021.5 1021.4 0.0
20/04:30pm 24.0 20.8 12.0 47 6.8 E 20 33 11 18 1021.3 1021.2 0.0
20/04:00pm 24.2 20.6 11.9 46 7.0 ENE 22 30 12 16 1021.1 1021.0 0.0
20/03:30pm 24.5 20.5 11.8 45 7.2 E 24 30 13 16 1021.0 1020.9 0.0
20/03:00pm 25.0 21.0 11.9 44 7.4 E 24 35 13 19 1020.8 1020.7 0.0
20/02:30pm 25.2 21.2 11.7 43 7.7 E 24 33 13 18 1021.0 1020.9 0.0
20/02:00pm 25.1 21.0 11.6 42 7.6 E 24 33 13 18 1021.5 1021.4 0.0
20/01:30pm 25.6 21.6 11.7 42 7.9 E 24 35 13 19 1021.8 1021.7 0.0
20/01:00pm 25.4 21.5 10.8 40 8.2 E 22 37 12 20 1022.2 1022.1 0.0
20/12:30pm 25.5 21.2 10.9 40 8.2 E 24 33 13 18 1022.6 1022.5 0.0
20/12:00pm 25.6 22.1 11.0 40 8.2 E 20 33 11 18 1022.9 1022.8 0.0
20/11:30am 24.6 21.0 10.5 41 7.8 E 20 32 11 17 1023.4 1023.3 0.0
20/11:00am 24.5 21.0 10.8 42 7.6 E 20 32 11 17 1023.9 1023.8 0.0
20/10:30am 24.3 19.7 9.8 40 7.9 E 24 33 13 18 1024.4 1024.3 0.0
20/10:00am 24.5 20.2 10.8 42 7.6 ESE 24 39 13 21 1024.8 1024.7 0.0
20/09:30am 23.2 19.1 8.5 39 7.8 ESE 20 32 11 17 1025.1 1025.0 0.0
20/09:00am 23.4 19.6 9.8 42 7.4 ESE 20 32 11 17 1025.4 1025.3 0.0
20/08:30am 23.2 20.3 10.9 46 6.8 E 17 35 9 19 1025.5 1025.4 0.0
20/08:00am 21.6 18.1 11.0 51 5.8 ESE 20 28 11 15 1025.3 1025.2 0.0
20/07:30am 20.6 18.9 12.3 59 4.7 SSE 13 17 7 9 1025.4 1025.3 0.0
20/07:00am 18.0 16.7 12.5 70 3.0 S 11 13 6 7 1025.1 1025.0 0.0
20/06:30am 16.1 14.7 12.3 78 2.1 S 11 15 6 8 1024.8 1024.7 0.0
20/06:00am 14.5 12.9 11.6 83 1.5 S 11 15 6 8 1024.6 1024.5 0.0
20/05:30am 13.7 12.1 11.6 87 1.1 SSW 11 15 6 8 1024.3 1024.2 0.0
20/05:00am 13.3 12.0 11.2 87 1.1 S 9 13 5 7 1023.9 1023.8 0.0
20/04:30am 13.4 11.7 11.3 87 1.1 S 11 15 6 8 1023.6 1023.5 0.0
20/04:00am 13.8 12.2 11.5 86 1.2 S 11 17 6 9 1023.5 1023.4 0.0
20/03:30am 13.7 12.1 11.4 86 1.2 S 11 13 6 7 1023.6 1023.5 0.0
20/03:00am 13.9 12.3 11.4 85 1.3 S 11 15 6 8 1023.5 1023.4 0.0
20/02:30am 14.0 12.4 11.5 85 1.3 S 11 13 6 7 1023.6 1023.5 0.0
20/02:00am 14.5 13.0 11.8 84 1.4 S 11 13 6 7 1023.7 1023.6 0.0
20/01:30am 14.4 13.6 11.6 83 1.5 S 7 9 4 5 1023.9 1023.8 0.0
20/01:00am 14.9 13.8 11.9 82 1.6 S 9 13 5 7 1024.2 1024.1 0.0
20/12:30am 14.9 13.4 11.9 82 1.6 S 11 13 6 7 1024.7 1024.6 0.0
20/12:00am 15.5 14.1 12.1 80 1.8 S 11 15 6 8 1024.8 1024.7 0.0
 
Date/Time
EST
Temp
°C
App
Temp
°C
Dew
Point
Rel
Hum
%
Delta-T
°C
Wind Press
QNH
hPa
Press
MSL
hPa
Rain
since 9 am
mm
Dir
 
Spd
km/h
Gust
km/h
Spd
kts
Gust
kts
19/11:30pm 15.6 14.1 12.0 79 2.0 S 11 13 6 7 1025.1 1025.0 0.0
19/11:00pm 15.9 14.4 11.9 77 2.2 S 11 13 6 7 1025.3 1025.2 0.0
19/10:30pm 15.9 14.2 11.3 74 2.5 S 11 13 6 7 1025.5 1025.4 0.0
19/10:00pm 16.5 15.6 11.4 72 2.7 S 7 11 4 6 1025.5 1025.4 0.0
19/09:30pm 17.6 16.0 11.6 68 3.3 SE 11 11 6 6 1025.6 1025.5 0.0
19/09:00pm 18.8 16.5 11.9 64 3.8 ESE 15 20 8 11 1025.5 1025.4 0.0
19/08:30pm 19.3 16.6 11.6 61 4.2 ESE 17 22 9 12 1025.4 1025.3 0.0
19/08:00pm 19.9 16.9 12.4 62 4.2 E 20 26 11 14 1025.0 1024.9 0.0
19/07:30pm 20.2 16.7 12.2 60 4.5 E 22 28 12 15 1024.7 1024.6 0.0
19/07:00pm 20.5 15.5 10.9 54 5.2 ESE 28 35 15 19 1024.2 1024.1 0.0
19/06:30pm 20.8 16.4 11.7 56 5.1 ESE 26 37 14 20 1024.1 1024.0 0.0
19/06:00pm 21.2 16.0 11.5 54 5.4 ESE 30 39 16 21 1023.8 1023.7 0.0
19/05:30pm 21.8 16.7 11.8 53 5.6 E 30 41 16 22 1023.2 1023.1 0.0
19/05:00pm 22.6 16.6 12.0 51 6.0 ESE 35 46 19 25 1022.9 1022.8 0.0
19/04:30pm 23.5 17.8 11.9 48 6.6 ESE 33 44 18 24 1022.5 1022.4 0.0
19/04:00pm 24.0 18.4 12.0 47 6.8 E 33 46 18 25 1022.4 1022.3 0.0
19/03:30pm 24.3 18.4 12.3 47 6.9 E 35 46 19 25 1022.2 1022.1 0.0
19/03:00pm 24.3 17.8 11.6 45 7.2 E 37 46 20 25 1022.1 1022.0 0.0
19/02:30pm 25.3 19.9 12.2 44 7.5 E 32 41 17 22 1022.2 1022.1 0.0
19/02:00pm 25.5 20.3 11.7 42 7.8 E 30 43 16 23 1022.6 1022.5 0.0
19/01:30pm 25.6 19.7 11.0 40 8.2 E 33 46 18 25 1023.0 1022.9 0.0
19/01:00pm 25.8 20.1 11.2 40 8.2 ESE 32 39 17 21 1023.4 1023.3 0.0
19/12:30pm 25.7 19.5 11.5 41 8.1 E 35 48 19 26 1023.7 1023.6 0.0
19/12:00pm 25.4 19.8 11.6 42 7.8 ESE 32 46 17 25 1024.1 1024.0 0.0
19/11:30am 25.1 19.1 10.2 39 8.3 E 32 43 17 23 1024.5 1024.4 0.0
19/11:00am 25.1 19.6 10.6 40 8.1 ESE 30 37 16 20 1024.8 1024.7 0.0
19/10:30am 24.9 19.8 11.8 44 7.5 E 30 39 16 21 1025.3 1025.2 0.0
19/10:00am 25.2 19.6 11.4 42 7.8 E 32 41 17 22 1025.5 1025.4 0.0
19/09:30am 24.6 19.5 11.9 45 7.2 ESE 30 43 16 23 1025.9 1025.8 0.0
19/09:00am 23.7 19.7 14.1 55 5.6 ESE 28 39 15 21 1026.2 1026.1 0.6
19/08:30am 23.1 21.5 15.9 64 4.4 SE 19 26 10 14 1026.4 1026.3 0.6
19/08:00am 20.1 16.8 15.1 73 2.9 SE 26 33 14 18 1026.5 1026.4 0.6
19/07:30am 21.2 19.3 15.3 69 3.5 SSE 19 26 10 14 1026.1 1026.0 0.6
19/07:00am 20.2 19.7 16.0 77 2.5 S 13 20 7 11 1025.9 1025.8 0.6
19/06:30am 18.7 18.0 15.4 81 1.9 S 13 20 7 11 1025.6 1025.5 0.6
19/06:00am 17.5 16.1 15.5 88 1.2 S 17 24 9 13 1025.5 1025.4 0.6
19/05:30am 17.2 16.5 15.4 89 1.1 SSE 13 19 7 10 1024.9 1024.8 0.6
19/05:00am 17.1 16.8 15.4 90 1.0 S 11 17 6 9 1024.6 1024.5 0.6
19/04:30am 17.1 16.9 15.6 91 0.9 S 11 15 6 8 1024.5 1024.4 0.6
19/04:00am 17.3 17.1 15.8 91 0.9 SSE 11 17 6 9 1024.2 1024.1 0.6
19/03:30am 17.3 17.1 15.8 91 0.9 S 11 17 6 9 1024.2 1024.1 0.6
19/03:00am 17.1 16.6 15.8 92 0.8 S 13 17 7 9 1024.0 1023.9 0.6
19/02:30am 17.1 15.3 15.4 90 1.0 SSE 19 24 10 13 1024.2 1024.1 0.2
19/02:00am 17.1 16.4 14.2 83 1.7 SSE 11 19 6 10 1023.9 1023.8 0.0
19/01:30am 16.8 16.4 14.1 84 1.5 S 9 13 5 7 1024.1 1024.0 0.0
19/01:00am 16.4 15.9 13.7 84 1.5 SSE 9 13 5 7 1024.4 1024.3 0.0
19/12:30am 16.2 15.5 13.3 83 1.6 S 9 11 5 6 1024.5 1024.4 0.0
19/12:00am 16.2 15.8 13.1 82 1.7 S 7 11 4 6 1024.7 1024.6 0.0
 
Date/Time
EST
Temp
°C
App
Temp
°C
Dew
Point
Rel
Hum
%
Delta-T
°C
Wind Press
QNH
hPa
Press
MSL
hPa
Rain
since 9 am
mm
Dir
 
Spd
km/h
Gust
km/h
Spd
kts
Gust
kts
18/11:30pm 17.0 16.0 13.3 79 2.1 SSE 11 15 6 8 1025.0 1024.9 0.0
18/11:00pm 17.1 16.4 13.2 78 2.2 S 9 13 5 7 1025.1 1025.0 0.0
18/10:30pm 17.7 17.2 13.8 78 2.2 SSE 9 13 5 7 1025.2 1025.1 0.0
18/10:00pm 17.9 16.3 13.8 77 2.3 SE 15 19 8 10 1025.3 1025.2 0.0
18/09:30pm 17.2 15.6 12.9 76 2.4 SE 13 17 7 9 1025.3 1025.2 0.0
18/09:00pm 18.0 16.5 13.1 73 2.7 SSE 13 17 7 9 1025.2 1025.1 0.0
18/08:30pm 18.3 16.0 13.0 71 3.0 SE 17 20 9 11 1025.1 1025.0 0.0
18/08:00pm 19.0 16.6 12.7 67 3.5 SE 17 20 9 11 1024.6 1024.5 0.0
18/07:30pm 19.8 17.0 12.6 63 4.1 SE 19 28 10 15 1024.4 1024.3 0.0
18/07:00pm 20.5 17.1 12.5 60 4.5 ESE 22 28 12 15 1024.0 1023.9 0.0
18/06:30pm 20.9 17.3 13.1 61 4.5 ESE 24 30 13 16 1023.6 1023.5 0.0
18/06:00pm 21.4 16.3 13.1 59 4.7 ESE 32 43 17 23 1023.0 1022.9 0.0
18/05:30pm 22.1 16.4 12.9 56 5.3 ESE 35 46 19 25 1022.6 1022.5 0.0
18/05:00pm 23.1 17.6 13.6 55 5.5 ESE 35 44 19 24 1022.2 1022.1 0.0
18/04:30pm 23.6 17.7 13.5 53 5.9 ESE 37 54 20 29 1021.8 1021.7 0.0
18/04:00pm 24.1 18.0 13.0 50 6.4 E 37 48 20 26 1021.5 1021.4 0.0
18/03:30pm 24.4 17.9 11.7 45 7.2 ESE 37 52 20 28 1021.5 1021.4 0.0
18/03:00pm 25.7 19.3 13.2 46 7.3 E 39 48 21 26 1021.4 1021.3 0.0
18/02:30pm 25.1 18.6 13.0 47 7.0 ESE 39 54 21 29 1021.6 1021.5 0.0
18/02:00pm 25.0 19.5 13.5 48 6.7 E 35 43 19 23 1021.7 1021.6 0.0
18/01:30pm 24.2 19.2 13.4 51 6.3 E 32 43 17 23 1022.1 1022.0 0.0
18/01:00pm 25.2 20.2 13.4 48 6.9 ESE 32 43 17 23 1022.3 1022.2 0.0
18/12:30pm 25.0 20.5 12.6 46 7.2 ESE 28 35 15 19 1022.4 1022.3 0.0
18/12:00pm 24.8 20.4 13.0 47 6.8 ESE 28 35 15 19 1023.0 1022.9 0.0
18/11:30am 25.2 20.4 12.8 46 7.2 E 30 43 16 23 1023.3 1023.2 0.0
18/11:00am 26.3 20.8 10.5 37 8.8 ESE 30 41 16 22 1023.5 1023.4 0.0
18/10:30am 25.5 19.7 9.3 36 8.9 ESE 30 37 16 20 1023.9 1023.8 0.0

Other Formats:

Comma delimited format used in spreadsheet applications
http://www.bom.gov.au/fwo/IDQ60801/IDQ60801.94387.axf

JavaScript Object Notation format (JSON) in row-major order
http://www.bom.gov.au/fwo/IDQ60801/IDQ60801.94387.json